sensor_id;sensor_type;location;lat;lon;timestamp;pressure;altitude;pressure_sealevel;temperature;humidity
79372;BME280;68914;51.262;6.802;2023-09-19T00:00:41;100570.97;;;21.80;nan
79372;BME280;68914;51.262;6.802;2023-09-19T00:01:43;100567.50;;;22.19;nan
79372;BME280;68914;51.262;6.802;2023-09-19T00:02:55;100568.31;;;21.75;nan
79372;BME280;68914;51.262;6.802;2023-09-19T00:03:59;100570.06;;;22.63;nan
79372;BME280;68914;51.262;6.802;2023-09-19T00:05:01;100570.25;;;22.14;nan
79372;BME280;68914;51.262;6.802;2023-09-19T00:06:04;100573.75;;;22.04;nan
79372;BME280;68914;51.262;6.802;2023-09-19T00:07:05;100571.97;;;21.89;nan
79372;BME280;68914;51.262;6.802;2023-09-19T00:08:06;100575.03;;;21.72;nan
79372;BME280;68914;51.262;6.802;2023-09-19T00:09:07;100574.88;;;22.95;nan
79372;BME280;68914;51.262;6.802;2023-09-19T00:10:13;100580.28;;;21.93;nan
79372;BME280;68914;51.262;6.802;2023-09-19T00:11:15;100580.34;;;22.27;nan
79372;BME280;68914;51.262;6.802;2023-09-19T00:12:16;100579.06;;;22.19;nan
79372;BME280;68914;51.262;6.802;2023-09-19T00:13:18;100581.13;;;22.56;nan
79372;BME280;68914;51.262;6.802;2023-09-19T00:14:19;100581.63;;;22.64;nan
79372;BME280;68914;51.262;6.802;2023-09-19T00:15:23;100584.47;;;22.14;nan
79372;BME280;68914;51.262;6.802;2023-09-19T00:16:24;100580.41;;;22.12;nan
79372;BME280;68914;51.262;6.802;2023-09-19T00:17:25;100581.25;;;22.07;nan
79372;BME280;68914;51.262;6.802;2023-09-19T00:18:26;100577.84;;;21.96;nan
79372;BME280;68914;51.262;6.802;2023-09-19T00:19:32;100587.97;;;22.44;nan
79372;BME280;68914;51.262;6.802;2023-09-19T00:20:35;100578.25;;;22.19;nan
79372;BME280;68914;51.262;6.802;2023-09-19T00:21:36;100581.19;;;22.17;nan
79372;BME280;68914;51.262;6.802;2023-09-19T00:22:41;100578.13;;;21.50;nan
79372;BME280;68914;51.262;6.802;2023-09-19T00:23:45;100579.72;;;21.96;nan
79372;BME280;68914;51.262;6.802;2023-09-19T00:24:45;100577.38;;;21.84;nan
79372;BME280;68914;51.262;6.802;2023-09-19T00:25:46;100580.97;;;22.08;nan
79372;BME280;68914;51.262;6.802;2023-09-19T00:26:47;100578.88;;;21.56;nan
79372;BME280;68914;51.262;6.802;2023-09-19T00:27:50;100579.03;;;21.80;nan
79372;BME280;68914;51.262;6.802;2023-09-19T00:28:55;100580.97;;;22.14;nan
79372;BME280;68914;51.262;6.802;2023-09-19T00:29:57;100576.72;;;22.71;nan
79372;BME280;68914;51.262;6.802;2023-09-19T00:30:58;100577.44;;;22.76;nan
79372;BME280;68914;51.262;6.802;2023-09-19T00:32:02;100581.75;;;21.70;nan
79372;BME280;68914;51.262;6.802;2023-09-19T00:33:05;100585.59;;;22.03;nan
79372;BME280;68914;51.262;6.802;2023-09-19T00:34:08;100584.34;;;22.29;nan
79372;BME280;68914;51.262;6.802;2023-09-19T00:35:11;100585.47;;;22.52;nan
79372;BME280;68914;51.262;6.802;2023-09-19T00:36:11;100585.47;;;22.52;nan
79372;BME280;68914;51.262;6.802;2023-09-19T00:37:12;100587.38;;;22.13;nan
79372;BME280;68914;51.262;6.802;2023-09-19T00:38:13;100591.03;;;21.38;nan
79372;BME280;68914;51.262;6.802;2023-09-19T00:39:19;100589.75;;;21.80;nan
79372;BME280;68914;51.262;6.802;2023-09-19T00:40:20;100586.69;;;22.36;nan
79372;BME280;68914;51.262;6.802;2023-09-19T00:41:21;100590.34;;;22.79;nan
79372;BME280;68914;51.262;6.802;2023-09-19T00:42:22;100591.53;;;21.50;nan
79372;BME280;68914;51.262;6.802;2023-09-19T00:43:23;100594.25;;;21.40;nan
79372;BME280;68914;51.262;6.802;2023-09-19T00:44:24;100582.78;;;21.79;nan
79372;BME280;68914;51.262;6.802;2023-09-19T00:45:25;100583.25;;;21.91;nan
79372;BME280;68914;51.262;6.802;2023-09-19T00:46:26;100590.75;;;21.89;nan
79372;BME280;68914;51.262;6.802;2023-09-19T00:47:28;100587.94;;;21.70;nan
79372;BME280;68914;51.262;6.802;2023-09-19T00:48:30;100594.84;;;21.81;nan
79372;BME280;68914;51.262;6.802;2023-09-19T00:49:32;100591.31;;;21.91;nan
79372;BME280;68914;51.262;6.802;2023-09-19T00:50:33;100595.03;;;21.46;nan
79372;BME280;68914;51.262;6.802;2023-09-19T00:51:34;100587.63;;;21.82;nan
79372;BME280;68914;51.262;6.802;2023-09-19T00:52:37;100590.47;;;21.41;nan
79372;BME280;68914;51.262;6.802;2023-09-19T00:53:39;100602.00;;;21.42;nan
79372;BME280;68914;51.262;6.802;2023-09-19T00:54:47;100597.09;;;22.08;nan
79372;BME280;68914;51.262;6.802;2023-09-19T00:55:48;100594.63;;;22.22;nan
79372;BME280;68914;51.262;6.802;2023-09-19T00:56:49;100605.81;;;21.30;nan
79372;BME280;68914;51.262;6.802;2023-09-19T00:57:52;100603.72;;;21.77;nan
79372;BME280;68914;51.262;6.802;2023-09-19T00:58:53;100599.66;;;21.84;nan
79372;BME280;68914;51.262;6.802;2023-09-19T00:59:54;100605.66;;;21.71;nan
79372;BME280;68914;51.262;6.802;2023-09-19T01:00:56;100601.53;;;21.84;nan
79372;BME280;68914;51.262;6.802;2023-09-19T01:01:56;100599.19;;;22.17;nan
79372;BME280;68914;51.262;6.802;2023-09-19T01:02:57;100603.84;;;21.56;nan
79372;BME280;68914;51.262;6.802;2023-09-19T01:03:58;100600.59;;;21.59;nan
79372;BME280;68914;51.262;6.802;2023-09-19T01:04:59;100609.25;;;21.41;nan
79372;BME280;68914;51.262;6.802;2023-09-19T01:06:04;100600.69;;;21.94;nan
79372;BME280;68914;51.262;6.802;2023-09-19T01:07:06;100606.19;;;22.13;nan
79372;BME280;68914;51.262;6.802;2023-09-19T01:08:08;100608.50;;;22.64;nan
79372;BME280;68914;51.262;6.802;2023-09-19T01:09:14;100608.47;;;22.34;nan
79372;BME280;68914;51.262;6.802;2023-09-19T01:10:17;100611.41;;;22.67;nan
79372;BME280;68914;51.262;6.802;2023-09-19T01:11:33;100610.50;;;21.64;nan
79372;BME280;68914;51.262;6.802;2023-09-19T01:13:55;100611.44;;;21.34;nan
79372;BME280;68914;51.262;6.802;2023-09-19T01:15:21;100618.22;;;21.76;nan
79372;BME280;68914;51.262;6.802;2023-09-19T01:16:32;100620.75;;;22.01;nan
79372;BME280;68914;51.262;6.802;2023-09-19T01:17:48;100619.59;;;21.68;nan
79372;BME280;68914;51.262;6.802;2023-09-19T01:20:39;100633.78;;;20.83;nan
79372;BME280;68914;51.262;6.802;2023-09-19T01:29:35;100634.72;;;21.49;nan
79372;BME280;68914;51.262;6.802;2023-09-19T01:30:40;100630.72;;;21.46;nan
79372;BME280;68914;51.262;6.802;2023-09-19T01:31:44;100630.06;;;21.70;nan
79372;BME280;68914;51.262;6.802;2023-09-19T01:32:46;100633.97;;;21.93;nan
79372;BME280;68914;51.262;6.802;2023-09-19T01:34:00;100634.38;;;21.71;nan
79372;BME280;68914;51.262;6.802;2023-09-19T01:35:01;100641.72;;;21.29;nan
79372;BME280;68914;51.262;6.802;2023-09-19T01:36:04;100639.69;;;20.60;nan
79372;BME280;68914;51.262;6.802;2023-09-19T01:37:05;100647.19;;;20.68;nan
79372;BME280;68914;51.262;6.802;2023-09-19T01:38:07;100639.09;;;21.19;nan
79372;BME280;68914;51.262;6.802;2023-09-19T01:39:11;100642.94;;;21.78;nan
79372;BME280;68914;51.262;6.802;2023-09-19T01:40:17;100643.28;;;22.10;nan
79372;BME280;68914;51.262;6.802;2023-09-19T01:41:33;100641.94;;;21.53;nan
79372;BME280;68914;51.262;6.802;2023-09-19T01:42:43;100654.63;;;21.17;nan
79372;BME280;68914;51.262;6.802;2023-09-19T01:43:46;100648.09;;;21.54;nan
79372;BME280;68914;51.262;6.802;2023-09-19T01:46:25;100653.00;;;21.31;nan
79372;BME280;68914;51.262;6.802;2023-09-19T01:47:48;100655.72;;;21.11;nan
79372;BME280;68914;51.262;6.802;2023-09-19T01:52:59;100658.44;;;20.85;nan
79372;BME280;68914;51.262;6.802;2023-09-19T01:54:10;100647.78;;;21.66;nan
79372;BME280;68914;51.262;6.802;2023-09-19T01:55:12;100650.34;;;21.26;nan
79372;BME280;68914;51.262;6.802;2023-09-19T01:56:25;100651.66;;;21.29;nan
79372;BME280;68914;51.262;6.802;2023-09-19T01:57:30;100643.34;;;21.41;nan
79372;BME280;68914;51.262;6.802;2023-09-19T01:58:38;100656.22;;;21.28;nan
79372;BME280;68914;51.262;6.802;2023-09-19T01:59:47;100650.03;;;21.38;nan
79372;BME280;68914;51.262;6.802;2023-09-19T02:00:49;100656.22;;;21.28;nan
79372;BME280;68914;51.262;6.802;2023-09-19T02:01:55;100651.34;;;21.46;nan
79372;BME280;68914;51.262;6.802;2023-09-19T02:02:57;100652.09;;;21.67;nan
79372;BME280;68914;51.262;6.802;2023-09-19T02:04:00;100649.75;;;21.45;nan
79372;BME280;68914;51.262;6.802;2023-09-19T02:05:02;100652.22;;;21.16;nan
79372;BME280;68914;51.262;6.802;2023-09-19T02:06:04;100653.47;;;21.54;nan
79372;BME280;68914;51.262;6.802;2023-09-19T02:07:05;100660.63;;;21.79;nan
79372;BME280;68914;51.262;6.802;2023-09-19T02:08:08;100649.19;;;21.58;nan
79372;BME280;68914;51.262;6.802;2023-09-19T02:09:11;100648.69;;;21.41;nan
79372;BME280;68914;51.262;6.802;2023-09-19T02:10:12;100650.47;;;21.66;nan
79372;BME280;68914;51.262;6.802;2023-09-19T02:11:13;100653.78;;;22.02;nan
79372;BME280;68914;51.262;6.802;2023-09-19T02:12:14;100660.59;;;22.33;nan
79372;BME280;68914;51.262;6.802;2023-09-19T02:13:20;100662.06;;;21.56;nan
79372;BME280;68914;51.262;6.802;2023-09-19T02:14:21;100661.34;;;21.35;nan
79372;BME280;68914;51.262;6.802;2023-09-19T02:15:22;100664.13;;;21.74;nan
79372;BME280;68914;51.262;6.802;2023-09-19T02:16:23;100668.03;;;21.27;nan
79372;BME280;68914;51.262;6.802;2023-09-19T02:17:24;100663.63;;;21.67;nan
79372;BME280;68914;51.262;6.802;2023-09-19T02:18:26;100666.41;;;21.36;nan
79372;BME280;68914;51.262;6.802;2023-09-19T02:19:28;100672.25;;;21.54;nan
79372;BME280;68914;51.262;6.802;2023-09-19T02:20:30;100668.50;;;21.50;nan
79372;BME280;68914;51.262;6.802;2023-09-19T02:21:33;100662.91;;;21.41;nan
79372;BME280;68914;51.262;6.802;2023-09-19T02:22:34;100671.03;;;20.70;nan
79372;BME280;68914;51.262;6.802;2023-09-19T02:23:35;100666.22;;;20.61;nan
79372;BME280;68914;51.262;6.802;2023-09-19T02:24:39;100672.31;;;21.28;nan
79372;BME280;68914;51.262;6.802;2023-09-19T02:25:40;100670.97;;;22.01;nan
79372;BME280;68914;51.262;6.802;2023-09-19T02:26:42;100676.63;;;21.14;nan
79372;BME280;68914;51.262;6.802;2023-09-19T02:27:43;100670.16;;;21.41;nan
79372;BME280;68914;51.262;6.802;2023-09-19T02:28:43;100682.25;;;21.02;nan
79372;BME280;68914;51.262;6.802;2023-09-19T02:29:46;100671.31;;;20.99;nan
79372;BME280;68914;51.262;6.802;2023-09-19T02:30:49;100677.38;;;20.23;nan
79372;BME280;68914;51.262;6.802;2023-09-19T02:31:50;100681.47;;;21.02;nan
79372;BME280;68914;51.262;6.802;2023-09-19T02:32:51;100683.53;;;21.46;nan
79372;BME280;68914;51.262;6.802;2023-09-19T02:33:52;100680.06;;;21.30;nan
79372;BME280;68914;51.262;6.802;2023-09-19T02:34:53;100684.38;;;21.41;nan
79372;BME280;68914;51.262;6.802;2023-09-19T02:35:56;100686.56;;;21.19;nan
79372;BME280;68914;51.262;6.802;2023-09-19T02:37:03;100684.97;;;21.07;nan
79372;BME280;68914;51.262;6.802;2023-09-19T02:38:05;100688.19;;;20.84;nan
79372;BME280;68914;51.262;6.802;2023-09-19T02:39:08;100691.81;;;21.65;nan
79372;BME280;68914;51.262;6.802;2023-09-19T02:40:09;100693.53;;;20.53;nan
79372;BME280;68914;51.262;6.802;2023-09-19T02:41:18;100689.78;;;20.54;nan
79372;BME280;68914;51.262;6.802;2023-09-19T02:42:19;100692.22;;;20.56;nan
79372;BME280;68914;51.262;6.802;2023-09-19T02:43:20;100690.03;;;20.48;nan
79372;BME280;68914;51.262;6.802;2023-09-19T02:44:22;100683.91;;;20.78;nan
79372;BME280;68914;51.262;6.802;2023-09-19T02:45:24;100686.28;;;21.10;nan
79372;BME280;68914;51.262;6.802;2023-09-19T02:46:25;100686.81;;;21.32;nan
79372;BME280;68914;51.262;6.802;2023-09-19T02:47:26;100680.69;;;20.55;nan
79372;BME280;68914;51.262;6.802;2023-09-19T02:48:29;100685.50;;;20.94;nan
79372;BME280;68914;51.262;6.802;2023-09-19T02:49:33;100685.22;;;20.85;nan
79372;BME280;68914;51.262;6.802;2023-09-19T02:50:35;100688.44;;;20.77;nan
79372;BME280;68914;51.262;6.802;2023-09-19T02:51:36;100693.03;;;20.72;nan
79372;BME280;68914;51.262;6.802;2023-09-19T02:52:37;100689.22;;;21.34;nan
79372;BME280;68914;51.262;6.802;2023-09-19T02:53:38;100693.19;;;21.52;nan
79372;BME280;68914;51.262;6.802;2023-09-19T02:54:39;100689.53;;;20.56;nan
79372;BME280;68914;51.262;6.802;2023-09-19T02:55:40;100682.53;;;21.01;nan
79372;BME280;68914;51.262;6.802;2023-09-19T02:56:41;100684.97;;;20.67;nan
79372;BME280;68914;51.262;6.802;2023-09-19T02:57:45;100682.56;;;20.80;nan
79372;BME280;68914;51.262;6.802;2023-09-19T02:58:46;100695.16;;;20.85;nan
79372;BME280;68914;51.262;6.802;2023-09-19T02:59:48;100684.69;;;20.53;nan
79372;BME280;68914;51.262;6.802;2023-09-19T03:00:49;100694.34;;;20.90;nan
79372;BME280;68914;51.262;6.802;2023-09-19T03:01:52;100695.66;;;21.33;nan
79372;BME280;68914;51.262;6.802;2023-09-19T03:02:55;100701.19;;;21.67;nan
79372;BME280;68914;51.262;6.802;2023-09-19T03:03:55;100697.84;;;20.75;nan
79372;BME280;68914;51.262;6.802;2023-09-19T03:04:56;100690.00;;;20.43;nan
79372;BME280;68914;51.262;6.802;2023-09-19T03:06:01;100696.22;;;20.89;nan
79372;BME280;68914;51.262;6.802;2023-09-19T03:07:03;100696.97;;;21.51;nan
79372;BME280;68914;51.262;6.802;2023-09-19T03:08:05;100705.81;;;21.41;nan
79372;BME280;68914;51.262;6.802;2023-09-19T03:09:06;100699.66;;;21.41;nan
79372;BME280;68914;51.262;6.802;2023-09-19T03:10:14;100716.03;;;20.98;nan
79372;BME280;68914;51.262;6.802;2023-09-19T03:11:16;100713.91;;;21.00;nan
79372;BME280;68914;51.262;6.802;2023-09-19T03:12:21;100713.63;;;21.43;nan
79372;BME280;68914;51.262;6.802;2023-09-19T03:13:22;100707.44;;;21.06;nan
79372;BME280;68914;51.262;6.802;2023-09-19T03:14:22;100711.47;;;21.09;nan
79372;BME280;68914;51.262;6.802;2023-09-19T03:15:23;100705.13;;;21.90;nan
79372;BME280;68914;51.262;6.802;2023-09-19T03:16:25;100709.06;;;21.43;nan
79372;BME280;68914;51.262;6.802;2023-09-19T03:17:29;100705.13;;;21.90;nan
79372;BME280;68914;51.262;6.802;2023-09-19T03:18:30;100711.06;;;21.77;nan
79372;BME280;68914;51.262;6.802;2023-09-19T03:19:32;100705.78;;;21.56;nan
79372;BME280;68914;51.262;6.802;2023-09-19T03:20:38;100705.97;;;21.80;nan
79372;BME280;68914;51.262;6.802;2023-09-19T03:21:39;100706.38;;;21.18;nan
79372;BME280;68914;51.262;6.802;2023-09-19T03:22:40;100704.50;;;21.28;nan
79372;BME280;68914;51.262;6.802;2023-09-19T03:23:41;100708.25;;;21.27;nan
79372;BME280;68914;51.262;6.802;2023-09-19T03:24:41;100706.09;;;21.40;nan
79372;BME280;68914;51.262;6.802;2023-09-19T03:25:44;100702.63;;;21.39;nan
79372;BME280;68914;51.262;6.802;2023-09-19T03:26:45;100707.66;;;21.56;nan
79372;BME280;68914;51.262;6.802;2023-09-19T03:27:46;100702.31;;;21.56;nan
79372;BME280;68914;51.262;6.802;2023-09-19T03:28:47;100710.41;;;21.05;nan
79372;BME280;68914;51.262;6.802;2023-09-19T03:29:49;100710.66;;;21.34;nan
79372;BME280;68914;51.262;6.802;2023-09-19T03:31:03;100706.41;;;20.87;nan
79372;BME280;68914;51.262;6.802;2023-09-19T03:32:05;100704.75;;;21.32;nan
79372;BME280;68914;51.262;6.802;2023-09-19T03:33:07;100703.94;;;21.47;nan
79372;BME280;68914;51.262;6.802;2023-09-19T03:34:09;100709.25;;;21.67;nan
79372;BME280;68914;51.262;6.802;2023-09-19T03:35:10;100711.75;;;21.33;nan
79372;BME280;68914;51.262;6.802;2023-09-19T03:36:14;100701.97;;;21.73;nan
79372;BME280;68914;51.262;6.802;2023-09-19T03:37:15;100707.94;;;21.49;nan
79372;BME280;68914;51.262;6.802;2023-09-19T03:38:16;100710.94;;;20.66;nan
79372;BME280;68914;51.262;6.802;2023-09-19T03:39:17;100707.19;;;20.62;nan
79372;BME280;68914;51.262;6.802;2023-09-19T03:40:17;100711.72;;;21.43;nan
79372;BME280;68914;51.262;6.802;2023-09-19T03:41:20;100716.88;;;20.83;nan
79372;BME280;68914;51.262;6.802;2023-09-19T03:42:21;100711.22;;;21.10;nan
79372;BME280;68914;51.262;6.802;2023-09-19T03:43:26;100701.03;;;21.07;nan
79372;BME280;68914;51.262;6.802;2023-09-19T03:44:27;100706.28;;;21.69;nan
79372;BME280;68914;51.262;6.802;2023-09-19T03:45:28;100710.13;;;21.37;nan
79372;BME280;68914;51.262;6.802;2023-09-19T03:46:29;100710.41;;;21.15;nan
79372;BME280;68914;51.262;6.802;2023-09-19T03:47:30;100705.06;;;21.15;nan
79372;BME280;68914;51.262;6.802;2023-09-19T03:48:33;100701.00;;;21.18;nan
79372;BME280;68914;51.262;6.802;2023-09-19T03:49:34;100700.47;;;21.41;nan
79372;BME280;68914;51.262;6.802;2023-09-19T03:50:34;100715.25;;;20.93;nan
79372;BME280;68914;51.262;6.802;2023-09-19T03:51:35;100706.94;;;20.63;nan
79372;BME280;68914;51.262;6.802;2023-09-19T03:52:36;100708.03;;;20.88;nan
79372;BME280;68914;51.262;6.802;2023-09-19T03:53:37;100713.06;;;21.25;nan
79372;BME280;68914;51.262;6.802;2023-09-19T03:54:37;100715.50;;;21.06;nan
79372;BME280;68914;51.262;6.802;2023-09-19T03:55:40;100710.41;;;21.30;nan
79372;BME280;68914;51.262;6.802;2023-09-19T03:56:40;100708.22;;;21.53;nan
79372;BME280;68914;51.262;6.802;2023-09-19T03:57:41;100709.03;;;21.38;nan
79372;BME280;68914;51.262;6.802;2023-09-19T03:58:43;100709.56;;;21.30;nan
79372;BME280;68914;51.262;6.802;2023-09-19T03:59:46;100707.44;;;21.37;nan
79372;BME280;68914;51.262;6.802;2023-09-19T04:00:47;100702.44;;;21.85;nan
79372;BME280;68914;51.262;6.802;2023-09-19T04:01:50;100711.19;;;21.31;nan
79372;BME280;68914;51.262;6.802;2023-09-19T04:02:52;100707.97;;;21.29;nan
79372;BME280;68914;51.262;6.802;2023-09-19T04:03:53;100707.44;;;21.27;nan
79372;BME280;68914;51.262;6.802;2023-09-19T04:04:54;100713.31;;;21.49;nan
79372;BME280;68914;51.262;6.802;2023-09-19T04:05:55;100703.53;;;21.84;nan
79372;BME280;68914;51.262;6.802;2023-09-19T04:06:56;100699.69;;;21.15;nan
79372;BME280;68914;51.262;6.802;2023-09-19T04:07:56;100713.66;;;21.07;nan
79372;BME280;68914;51.262;6.802;2023-09-19T04:08:57;100710.13;;;21.47;nan
79372;BME280;68914;51.262;6.802;2023-09-19T04:09:58;100699.41;;;22.07;nan
79372;BME280;68914;51.262;6.802;2023-09-19T04:10:58;100704.22;;;22.10;nan
79372;BME280;68914;51.262;6.802;2023-09-19T04:11:59;100713.56;;;21.53;nan
79372;BME280;68914;51.262;6.802;2023-09-19T04:12:59;100704.50;;;21.33;nan
79372;BME280;68914;51.262;6.802;2023-09-19T04:14:03;100712.22;;;21.60;nan
79372;BME280;68914;51.262;6.802;2023-09-19T04:15:05;100712.84;;;20.96;nan
79372;BME280;68914;51.262;6.802;2023-09-19T04:16:06;100709.84;;;21.28;nan
79372;BME280;68914;51.262;6.802;2023-09-19T04:17:07;100701.03;;;21.12;nan
79372;BME280;68914;51.262;6.802;2023-09-19T04:18:07;100716.06;;;20.88;nan
79372;BME280;68914;51.262;6.802;2023-09-19T04:19:08;100704.25;;;20.58;nan
79372;BME280;68914;51.262;6.802;2023-09-19T04:20:09;100715.53;;;20.91;nan
79372;BME280;68914;51.262;6.802;2023-09-19T04:21:12;100701.56;;;21.15;nan
79372;BME280;68914;51.262;6.802;2023-09-19T04:22:13;100711.22;;;20.65;nan
79372;BME280;68914;51.262;6.802;2023-09-19T04:23:13;100715.78;;;20.59;nan
79372;BME280;68914;51.262;6.802;2023-09-19T04:24:14;100706.69;;;20.91;nan
79372;BME280;68914;51.262;6.802;2023-09-19T04:25:15;100703.97;;;21.26;nan
79372;BME280;68914;51.262;6.802;2023-09-19T04:26:15;100708.41;;;21.72;nan
79372;BME280;68914;51.262;6.802;2023-09-19T04:27:17;100712.38;;;21.84;nan
79372;BME280;68914;51.262;6.802;2023-09-19T04:28:19;100710.72;;;20.83;nan
79372;BME280;68914;51.262;6.802;2023-09-19T04:29:19;100715.50;;;21.01;nan
79372;BME280;68914;51.262;6.802;2023-09-19T04:30:20;100713.88;;;21.21;nan
79372;BME280;68914;51.262;6.802;2023-09-19T04:31:21;100710.44;;;22.00;nan
79372;BME280;68914;51.262;6.802;2023-09-19T04:32:22;100714.94;;;21.45;nan
79372;BME280;68914;51.262;6.802;2023-09-19T04:33:23;100712.66;;;21.88;nan
79372;BME280;68914;51.262;6.802;2023-09-19T04:34:25;100713.56;;;21.53;nan
79372;BME280;68914;51.262;6.802;2023-09-19T04:35:25;100709.34;;;21.26;nan
79372;BME280;68914;51.262;6.802;2023-09-19T04:36:27;100717.88;;;21.49;nan
79372;BME280;68914;51.262;6.802;2023-09-19T04:37:27;100721.59;;;21.63;nan
79372;BME280;68914;51.262;6.802;2023-09-19T04:38:29;100714.41;;;21.38;nan
79372;BME280;68914;51.262;6.802;2023-09-19T04:39:29;100711.75;;;22.08;nan
79372;BME280;68914;51.262;6.802;2023-09-19T04:40:30;100707.72;;;21.41;nan
79372;BME280;68914;51.262;6.802;2023-09-19T04:41:31;100713.41;;;20.83;nan
79372;BME280;68914;51.262;6.802;2023-09-19T04:42:31;100714.97;;;21.04;nan
79372;BME280;68914;51.262;6.802;2023-09-19T04:43:32;100709.59;;;21.35;nan
79372;BME280;68914;51.262;6.802;2023-09-19T04:44:33;100708.50;;;21.51;nan
79372;BME280;68914;51.262;6.802;2023-09-19T04:46:36;100712.75;;;20.35;nan
79372;BME280;68914;51.262;6.802;2023-09-19T04:47:37;100716.84;;;21.19;nan
79372;BME280;68914;51.262;6.802;2023-09-19T04:48:39;100716.59;;;21.16;nan
79372;BME280;68914;51.262;6.802;2023-09-19T04:49:40;100713.91;;;21.10;nan
79372;BME280;68914;51.262;6.802;2023-09-19T04:50:41;100710.94;;;21.43;nan
79372;BME280;68914;51.262;6.802;2023-09-19T04:51:44;100710.06;;;21.63;nan
79372;BME280;68914;51.262;6.802;2023-09-19T04:52:49;100714.22;;;21.99;nan
79372;BME280;68914;51.262;6.802;2023-09-19T04:53:51;100717.13;;;20.82;nan
79372;BME280;68914;51.262;6.802;2023-09-19T04:54:51;100713.31;;;21.49;nan
79372;BME280;68914;51.262;6.802;2023-09-19T04:55:53;100716.06;;;20.88;nan
79372;BME280;68914;51.262;6.802;2023-09-19T04:56:55;100729.72;;;20.76;nan
79372;BME280;68914;51.262;6.802;2023-09-19T04:57:56;100714.97;;;20.58;nan
79372;BME280;68914;51.262;6.802;2023-09-19T04:58:57;100725.47;;;20.91;nan
79372;BME280;68914;51.262;6.802;2023-09-19T04:59:58;100720.31;;;21.25;nan
79372;BME280;68914;51.262;6.802;2023-09-19T05:00:59;100716.81;;;21.29;nan
79372;BME280;68914;51.262;6.802;2023-09-19T05:02:00;100726.75;;;21.13;nan
79372;BME280;68914;51.262;6.802;2023-09-19T05:03:01;100729.47;;;20.68;nan
79372;BME280;68914;51.262;6.802;2023-09-19T05:04:01;100733.69;;;21.30;nan
79372;BME280;68914;51.262;6.802;2023-09-19T05:05:07;100725.16;;;20.97;nan
79372;BME280;68914;51.262;6.802;2023-09-19T05:06:08;100733.72;;;21.45;nan
79372;BME280;68914;51.262;6.802;2023-09-19T05:07:09;100728.28;;;21.71;nan
79372;BME280;68914;51.262;6.802;2023-09-19T05:08:12;100729.16;;;21.30;nan
79372;BME280;68914;51.262;6.802;2023-09-19T05:09:15;100737.22;;;20.90;nan
79372;BME280;68914;51.262;6.802;2023-09-19T05:10:17;100744.41;;;20.48;nan
79372;BME280;68914;51.262;6.802;2023-09-19T05:11:20;100743.69;;;20.99;nan
79372;BME280;68914;51.262;6.802;2023-09-19T05:12:26;100743.13;;;21.12;nan
79372;BME280;68914;51.262;6.802;2023-09-19T05:13:26;100742.06;;;20.93;nan
79372;BME280;68914;51.262;6.802;2023-09-19T05:14:27;100741.97;;;20.31;nan
79372;BME280;68914;51.262;6.802;2023-09-19T05:15:28;100738.75;;;21.67;nan
79372;BME280;68914;51.262;6.802;2023-09-19T05:16:29;100748.19;;;21.54;nan
79372;BME280;68914;51.262;6.802;2023-09-19T05:17:32;100755.72;;;21.06;nan
79372;BME280;68914;51.262;6.802;2023-09-19T05:18:33;100752.22;;;21.42;nan
79372;BME280;68914;51.262;6.802;2023-09-19T05:19:33;100757.06;;;20.83;nan
79372;BME280;68914;51.262;6.802;2023-09-19T05:20:35;100762.44;;;21.19;nan
79372;BME280;68914;51.262;6.802;2023-09-19T05:21:38;100766.97;;;21.54;nan
79372;BME280;68914;51.262;6.802;2023-09-19T05:22:42;100763.50;;;21.39;nan
79372;BME280;68914;51.262;6.802;2023-09-19T05:23:43;100765.38;;;21.28;nan
79372;BME280;68914;51.262;6.802;2023-09-19T05:24:44;100764.56;;;21.02;nan
79372;BME280;68914;51.262;6.802;2023-09-19T05:25:48;100757.63;;;21.11;nan
79372;BME280;68914;51.262;6.802;2023-09-19T05:26:49;100768.28;;;21.67;nan
79372;BME280;68914;51.262;6.802;2023-09-19T05:27:53;100765.38;;;21.12;nan
79372;BME280;68914;51.262;6.802;2023-09-19T05:28:53;100768.84;;;20.98;nan
79372;BME280;68914;51.262;6.802;2023-09-19T05:29:54;100777.16;;;21.32;nan
79372;BME280;68914;51.262;6.802;2023-09-19T05:30:56;100774.34;;;22.03;nan
79372;BME280;68914;51.262;6.802;2023-09-19T05:31:56;100783.78;;;21.85;nan
79372;BME280;68914;51.262;6.802;2023-09-19T05:32:57;100785.97;;;21.78;nan
79372;BME280;68914;51.262;6.802;2023-09-19T05:33:58;100788.31;;;22.05;nan
79372;BME280;68914;51.262;6.802;2023-09-19T05:35:01;100786.56;;;21.40;nan
79372;BME280;68914;51.262;6.802;2023-09-19T05:36:02;100788.72;;;21.58;nan
79372;BME280;68914;51.262;6.802;2023-09-19T05:37:03;100785.47;;;21.05;nan
79372;BME280;68914;51.262;6.802;2023-09-19T05:38:04;100789.50;;;21.48;nan
79372;BME280;68914;51.262;6.802;2023-09-19T05:39:06;100793.81;;;21.39;nan
79372;BME280;68914;51.262;6.802;2023-09-19T05:40:09;100799.69;;;21.31;nan
79372;BME280;68914;51.262;6.802;2023-09-19T05:41:12;100797.00;;;21.05;nan
79372;BME280;68914;51.262;6.802;2023-09-19T05:42:14;100796.72;;;21.22;nan
79372;BME280;68914;51.262;6.802;2023-09-19T05:43:14;100799.19;;;21.44;nan
79372;BME280;68914;51.262;6.802;2023-09-19T05:44:15;100803.19;;;21.16;nan
79372;BME280;68914;51.262;6.802;2023-09-19T05:45:16;100801.84;;;21.13;nan
79372;BME280;68914;51.262;6.802;2023-09-19T05:46:22;100803.31;;;22.06;nan
79372;BME280;68914;51.262;6.802;2023-09-19T05:47:23;100800.28;;;22.28;nan
79372;BME280;68914;51.262;6.802;2023-09-19T05:48:25;100799.59;;;22.02;nan
79372;BME280;68914;51.262;6.802;2023-09-19T05:49:25;100800.16;;;21.94;nan
79372;BME280;68914;51.262;6.802;2023-09-19T05:50:26;100793.22;;;22.48;nan
79372;BME280;68914;51.262;6.802;2023-09-19T05:51:27;100809.59;;;21.71;nan
79372;BME280;68914;51.262;6.802;2023-09-19T05:52:28;100806.34;;;21.79;nan